Time;durP1;ratioP1;P1;durP2;ratioP2;P2;SDS_P1;SDS_P2;PMS_P1;PMS_P2;Temp;Humidity;BMP_temperature;BMP_pressure;BME280_temperature;BME280_humidity;BME280_pressure;Samples;Min_cycle;Max_cycle;Signal;HPM_P1;HPM_P2
2023/04/30 00:02:22;;;;;;;14.18;12.98;;;;;;;10.77;93.32;100260.34;10490439;28;20399;-73
2023/04/30 00:07:24;;;;;;;13.43;12.43;;;;;;;10.73;93.09;100257.84;10490400;28;20041;-73
2023/04/30 00:12:26;;;;;;;14.07;13.02;;;;;;;10.66;93.92;100266.81;10475313;28;20063;-73
2023/04/30 00:17:28;;;;;;;15.10;13.90;;;;;;;10.55;94.25;100269.75;10492327;28;20520;-73
2023/04/30 00:22:29;;;;;;;11.98;11.13;;;;;;;10.42;92.20;100279.72;10489667;28;20044;-73
2023/04/30 00:27:31;;;;;;;11.00;10.20;;;;;;;10.18;92.82;100281.22;10494845;28;20036;-72
2023/04/30 00:32:33;;;;;;;11.07;10.27;;;;;;;10.17;91.90;100276.00;10493807;28;20083;-73
2023/04/30 00:37:35;;;;;;;9.93;9.13;;;;;;;10.16;92.09;100277.75;10497907;28;20051;-73
2023/04/30 00:42:36;;;;;;;10.55;9.57;;;;;;;9.95;93.00;100297.53;10494874;28;20056;-73
2023/04/30 00:47:38;;;;;;;10.75;9.80;;;;;;;9.93;93.02;100296.75;10496853;28;20139;-74
2023/04/30 00:52:44;;;;;;;10.48;9.52;;;;;;;9.67;93.95;100291.25;10497051;28;20079;-73
2023/04/30 00:57:46;;;;;;;9.88;9.05;;;;;;;9.55;95.44;100295.03;10495068;28;20048;-72
2023/04/30 01:02:48;;;;;;;12.23;10.98;;;;;;;9.42;97.07;100299.69;10496752;28;20166;-72
2023/04/30 01:07:51;;;;;;;11.23;10.45;;;;;;;9.27;98.30;100310.53;10495236;28;20045;-72
2023/04/30 01:13:19;;;;;;;12.80;11.77;;;;;;;9.44;97.11;100308.41;10476522;28;20041;-72
2023/04/30 01:18:26;;;;;;;12.40;11.40;;;;;;;9.64;96.36;100318.44;10490429;28;20060;-73
2023/04/30 01:24:03;;;;;;;15.75;12.48;;;;;;;9.35;97.79;100317.34;10495150;28;20033;-73
2023/04/30 01:29:05;;;;;;;15.80;14.20;;;;;;;9.09;100.00;100320.53;10494546;28;20052;-73
2023/04/30 01:34:07;;;;;;;13.27;12.18;;;;;;;9.09;99.98;100335.41;10493122;28;20451;-73
2023/04/30 01:39:15;;;;;;;15.82;12.82;;;;;;;8.96;100.00;100333.94;10475779;28;20041;-73
2023/04/30 01:44:45;;;;;;;13.07;11.80;;;;;;;8.57;100.00;100339.91;10494031;28;20131;-73
2023/04/30 01:50:08;;;;;;;11.75;10.52;;;;;;;8.33;100.00;100353.44;10492550;28;20127;-73
2023/04/30 01:55:19;;;;;;;11.27;10.38;;;;;;;8.50;100.00;100358.38;10493465;28;20048;-73
2023/04/30 02:00:21;;;;;;;11.25;9.30;;;;;;;8.55;98.85;100373.16;10458763;28;20420;-73
2023/04/30 02:05:23;;;;;;;9.18;8.55;;;;;;;8.48;98.15;100379.38;10495120;28;20043;-73
2023/04/30 02:10:28;;;;;;;8.60;7.80;;;;;;;8.40;97.61;100383.03;10478767;28;20040;-73
2023/04/30 02:15:30;;;;;;;8.55;7.75;;;;;;;8.05;99.41;100395.75;10475722;28;20044;-73
2023/04/30 02:20:31;;;;;;;8.30;7.70;;;;;;;7.77;100.00;100410.16;10491946;28;20139;-73
2023/04/30 02:25:36;;;;;;;10.43;7.20;;;;;;;7.85;100.00;100413.53;10493644;28;20140;-72
2023/04/30 02:30:38;;;;;;;7.63;6.93;;;;;;;7.88;99.80;100412.63;10475125;28;20040;-72
2023/04/30 02:35:40;;;;;;;7.75;7.00;;;;;;;7.64;100.00;100419.94;10491781;28;20045;-72
2023/04/30 02:40:42;;;;;;;10.52;6.38;;;;;;;7.53;100.00;100419.22;10493398;28;20524;-72
2023/04/30 02:45:43;;;;;;;8.10;7.43;;;;;;;7.62;100.00;100423.47;10493217;28;20214;-73
2023/04/30 02:50:45;;;;;;;7.75;6.60;;;;;;;7.65;100.00;100428.66;10492828;28;20442;-72
2023/04/30 02:55:47;;;;;;;6.72;6.18;;;;;;;7.44;100.00;100440.28;10491229;28;20048;-72
2023/04/30 03:00:49;;;;;;;7.75;7.00;;;;;;;7.07;100.00;100449.38;10491690;28;20048;-73
2023/04/30 03:05:50;;;;;;;7.32;6.72;;;;;;;7.36;100.00;100450.81;10490681;28;20249;-72
2023/04/30 03:10:52;;;;;;;7.18;5.97;;;;;;;7.30;100.00;100456.09;10490259;28;20040;-72
2023/04/30 03:16:03;;;;;;;7.50;6.80;;;;;;;7.22;100.00;100453.59;10492100;28;20045;-72
2023/04/30 03:21:05;;;;;;;7.75;6.43;;;;;;;6.95;100.00;100464.34;10473349;28;20135;-72
2023/04/30 03:26:07;;;;;;;6.32;5.85;;;;;;;6.88;100.00;100468.78;10473007;28;20106;-72
2023/04/30 03:31:09;;;;;;;7.20;6.32;;;;;;;6.75;100.00;100477.59;10492513;28;20045;-72
2023/04/30 03:36:11;;;;;;;6.47;5.82;;;;;;;6.74;100.00;100481.97;10491167;28;20055;-73
2023/04/30 03:41:13;;;;;;;7.03;5.63;;;;;;;6.69;100.00;100488.13;10473171;28;20382;-73
2023/04/30 03:46:15;;;;;;;6.97;6.47;;;;;;;6.66;100.00;100488.13;10491309;28;20089;-72
2023/04/30 03:51:19;;;;;;;7.78;6.10;;;;;;;6.66;100.00;100495.97;10491255;28;20044;-73
2023/04/30 03:56:21;;;;;;;7.22;6.53;;;;;;;6.86;100.00;100494.03;10492425;28;20044;-73
2023/04/30 04:01:23;;;;;;;6.75;6.15;;;;;;;6.73;100.00;100505.47;10496809;28;20094;-74
2023/04/30 04:06:25;;;;;;;7.80;7.03;;;;;;;6.50;100.00;100511.75;10497151;28;20140;-73
2023/04/30 04:11:27;;;;;;;7.72;7.03;;;;;;;6.55;100.00;100517.84;10505156;28;20203;-73
2023/04/30 04:16:30;;;;;;;7.10;6.00;;;;;;;6.59;100.00;100518.66;10481315;28;20094;-73
2023/04/30 04:21:32;;;;;;;6.75;6.15;;;;;;;6.54;100.00;100528.28;10496217;28;20037;-73
2023/04/30 04:26:39;;;;;;;6.30;5.80;;;;;;;6.70;100.00;100531.66;10495951;28;20517;-73
2023/04/30 04:31:42;;;;;;;6.28;5.70;;;;;;;6.49;100.00;100546.59;10479394;28;20037;-73
2023/04/30 04:36:44;;;;;;;6.07;5.53;;;;;;;6.53;100.00;100548.31;10498803;28;20072;-74
2023/04/30 04:41:46;;;;;;;5.68;5.05;;;;;;;6.78;100.00;100555.97;10496295;28;20084;-74
2023/04/30 04:46:48;;;;;;;5.63;5.13;;;;;;;6.96;100.00;100558.44;10497343;28;20033;-73
2023/04/30 04:51:50;;;;;;;5.78;5.28;;;;;;;7.14;99.75;100569.59;10496066;28;20148;-74
2023/04/30 04:56:52;;;;;;;6.93;6.07;;;;;;;7.14;99.53;100577.44;10496992;28;20070;-74
2023/04/30 05:01:55;;;;;;;6.55;5.90;;;;;;;7.12;99.72;100577.44;10496270;28;20140;-73
2023/04/30 05:06:57;;;;;;;6.15;5.55;;;;;;;7.12;99.77;100582.66;10494770;28;20060;-73
2023/04/30 05:11:59;;;;;;;6.75;5.05;;;;;;;7.29;98.18;100593.84;10493678;28;20565;-74
2023/04/30 05:17:00;;;;;;;5.35;4.72;;;;;;;7.28;97.60;100586.88;10494821;28;20059;-73
2023/04/30 05:22:03;;;;;;;9.18;5.70;;;;;;;7.36;97.35;100599.91;10496001;28;20044;-73
2023/04/30 05:27:05;;;;;;;6.97;4.45;;;;;;;7.45;97.36;100601.56;10495645;28;20056;-73
2023/04/30 05:32:07;;;;;;;7.25;4.57;;;;;;;7.47;96.04;100610.25;10495932;28;20052;-73
2023/04/30 05:37:09;;;;;;;7.28;4.63;;;;;;;7.28;96.94;100610.41;10493547;28;20112;-73
2023/04/30 05:42:11;;;;;;;6.25;3.92;;;;;;;7.44;94.66;100608.53;10495720;28;20033;-73
2023/04/30 05:47:12;;;;;;;3.90;3.42;;;;;;;7.74;92.81;100619.56;10493295;28;20466;-73
2023/04/30 05:52:16;;;;;;;4.00;3.60;;;;;;;7.61;94.31;100616.19;10493837;28;20115;-73
2023/04/30 05:57:18;;;;;;;7.35;3.85;;;;;;;8.30;90.70;100633.72;10506043;22;20055;-74
2023/04/30 06:02:19;;;;;;;5.13;4.47;;;;;;;7.99;91.60;100626.25;10458650;28;20045;-72
2023/04/30 06:07:21;;;;;;;7.70;4.32;;;;;;;8.24;90.43;100634.69;10493158;28;20044;-72
2023/04/30 06:12:23;;;;;;;3.92;3.30;;;;;;;8.51;87.21;100624.75;10492807;28;20045;-72
2023/04/30 06:17:25;;;;;;;5.05;3.30;;;;;;;9.00;84.29;100631.91;10493579;28;20036;-72
2023/04/30 06:22:29;;;;;;;6.53;3.83;;;;;;;8.76;86.39;100631.34;10493192;28;20443;-73
2023/04/30 06:27:31;;;;;;;4.80;3.15;;;;;;;8.67;86.18;100633.25;10475428;28;20090;-73
2023/04/30 06:32:33;;;;;;;6.18;3.78;;;;;;;8.55;87.55;100643.03;10458197;28;20045;-73
2023/04/30 06:37:36;;;;;;;4.97;3.17;;;;;;;8.77;86.01;100640.13;10458633;28;20074;-72
2023/04/30 06:42:39;;;;;;;5.60;2.85;;;;;;;8.94;83.15;100630.25;10492990;28;20040;-73
2023/04/30 06:47:41;;;;;;;4.93;3.42;;;;;;;8.60;82.89;100632.50;10475559;28;20087;-73
2023/04/30 06:52:43;;;;;;;5.53;3.15;;;;;;;8.51;84.04;100635.25;10474915;28;20447;-73
2023/04/30 06:57:45;;;;;;;3.95;3.55;;;;;;;8.55;83.66;100632.56;10474658;28;20048;-73
2023/04/30 07:02:50;;;;;;;8.85;3.50;;;;;;;8.42;85.63;100632.75;10473845;28;20085;-74
2023/04/30 07:07:53;;;;;;;4.22;3.50;;;;;;;8.54;87.46;100640.41;10475050;28;20048;-73
2023/04/30 07:12:55;;;;;;;5.90;3.78;;;;;;;8.77;85.31;100647.97;10458736;28;20047;-72
2023/04/30 07:17:57;;;;;;;6.35;3.35;;;;;;;8.73;85.91;100644.53;10492017;28;20048;-72
2023/04/30 07:22:58;;;;;;;8.90;2.85;;;;;;;8.77;85.53;100647.97;10492738;28;20512;-72
2023/04/30 07:28:01;;;;;;;6.38;3.40;;;;;;;9.22;81.70;100637.66;10492579;28;20059;-72
2023/04/30 07:33:02;;;;;;;4.88;3.05;;;;;;;9.43;85.06;100645.19;10473251;28;20417;-72
2023/04/30 07:38:04;;;;;;;6.43;3.35;;;;;;;9.57;83.42;100647.56;10465872;28;20048;-73
2023/04/30 07:43:06;;;;;;;7.45;3.22;;;;;;;9.84;78.74;100654.91;10500337;28;20068;-72
2023/04/30 07:48:08;;;;;;;9.00;3.90;;;;;;;9.74;80.59;100660.34;10528118;22;20150;-82
2023/04/30 07:53:10;;;;;;;4.78;3.38;;;;;;;9.74;78.59;100661.25;10534933;28;20040;-83
2023/04/30 07:58:11;;;;;;;4.78;2.88;;;;;;;9.91;75.65;100663.53;10533714;28;20096;-82
2023/04/30 08:03:13;;;;;;;9.40;3.00;;;;;;;9.88;79.28;100662.75;10551302;28;20106;-82
2023/04/30 08:08:15;;;;;;;5.88;3.42;;;;;;;9.83;77.72;100662.84;10533023;28;20411;-82
2023/04/30 08:13:16;;;;;;;8.90;3.67;;;;;;;10.25;76.77;100671.66;10551717;28;20046;-83
2023/04/30 08:18:18;;;;;;;6.95;3.38;;;;;;;10.07;75.58;100667.59;10533676;28;20052;-83
2023/04/30 08:23:20;;;;;;;6.63;2.85;;;;;;;10.17;75.36;100668.28;10534828;28;20055;-82
2023/04/30 08:28:21;;;;;;;3.13;2.35;;;;;;;10.69;73.59;100674.25;10516782;28;20114;-83
2023/04/30 08:33:23;;;;;;;8.02;3.17;;;;;;;10.84;72.70;100677.38;10535762;28;20350;-79
2023/04/30 08:38:25;;;;;;;8.50;3.05;;;;;;;10.81;70.56;100676.63;10533075;28;20071;-81
2023/04/30 08:43:29;;;;;;;6.03;2.88;;;;;;;10.85;69.51;100684.41;10532899;28;20044;-82
2023/04/30 08:48:32;;;;;;;9.68;3.10;;;;;;;10.99;71.01;100676.19;10531874;28;20142;-81
2023/04/30 08:53:35;;;;;;;9.23;3.55;;;;;;;10.86;70.31;100672.09;10531786;28;20040;-81
2023/04/30 08:58:37;;;;;;;8.65;2.83;;;;;;;10.57;71.01;100672.75;10550229;28;20052;-80
2023/04/30 09:03:39;;;;;;;4.65;3.13;;;;;;;10.86;71.92;100675.59;10534292;28;20044;-81
2023/04/30 09:08:43;;;;;;;4.10;2.50;;;;;;;11.15;65.98;100681.06;10552425;28;20047;-83
2023/04/30 09:13:44;;;;;;;4.50;2.35;;;;;;;11.16;64.31;100678.44;10533114;28;20048;-81
2023/04/30 09:18:47;;;;;;;5.72;2.30;;;;;;;12.06;66.44;100675.25;10528779;28;20097;-81
2023/04/30 09:23:58;;;;;;;4.28;2.33;;;;;;;11.89;65.67;100675.72;10585057;28;20042;-82
2023/04/30 09:29:06;;;;;;;4.07;2.53;;;;;;;11.43;65.83;100676.88;10562115;28;20083;-82
2023/04/30 09:34:10;;;;;;;5.10;2.88;;;;;;;11.86;66.08;100681.94;10537132;28;20040;-84
2023/04/30 09:39:16;;;;;;;4.82;2.10;;;;;;;12.37;61.00;100676.13;10532991;28;20051;-84
2023/04/30 09:44:29;;;;;;;3.27;1.80;;;;;;;12.31;57.57;100673.66;10550063;28;20101;-82
2023/04/30 09:50:02;;;;;;;4.30;2.28;;;;;;;13.35;54.96;100664.31;10530751;28;20393;-83
2023/04/30 09:55:08;;;;;;;4.00;1.83;;;;;;;13.76;53.88;100662.06;10528444;28;20491;-83
2023/04/30 10:00:10;;;;;;;6.00;2.80;;;;;;;12.74;57.63;100653.91;10531499;28;20048;-81
2023/04/30 10:05:12;;;;;;;4.13;2.55;;;;;;;12.58;57.82;100650.91;10531617;28;20097;-84
2023/04/30 10:10:14;;;;;;;3.33;2.33;;;;;;;13.00;53.50;100650.47;10549365;28;20036;-83
2023/04/30 10:15:29;;;;;;;4.68;2.28;;;;;;;13.44;50.39;100647.31;10530025;28;20468;-82
2023/04/30 10:20:35;;;;;;;4.57;1.92;;;;;;;13.01;53.11;100641.63;10532595;28;20048;-80
2023/04/30 10:25:40;;;;;;;5.60;2.38;;;;;;;13.73;54.91;100646.31;10550651;28;20039;-82
2023/04/30 10:30:45;;;;;;;5.80;2.15;;;;;;;14.28;49.14;100641.69;10547024;28;20165;-83
2023/04/30 10:35:55;;;;;;;4.25;1.90;;;;;;;13.72;51.46;100639.28;10527557;28;20040;-83
2023/04/30 10:41:01;;;;;;;3.90;1.70;;;;;;;14.25;47.46;100642.63;10527899;28;20036;-81
2023/04/30 10:46:03;;;;;;;5.93;1.75;;;;;;;14.52;48.20;100639.91;10547534;28;20201;-82
2023/04/30 10:51:07;;;;;;;5.13;2.42;;;;;;;13.84;50.14;100641.50;10545876;28;20051;-81
2023/04/30 10:56:09;;;;;;;4.88;2.50;;;;;;;13.78;51.80;100637.31;10546300;28;20036;-81
2023/04/30 11:01:13;;;;;;;4.13;1.95;;;;;;;13.74;51.52;100638.34;10511606;28;20189;-82
2023/04/30 11:06:19;;;;;;;6.50;2.58;;;;;;;15.35;49.13;100632.16;10526106;28;20044;-83
2023/04/30 11:11:22;;;;;;;26.23;23.75;;;;;;;15.17;43.61;100624.97;10526150;28;20455;-83
2023/04/30 11:16:33;;;;;;;4.13;2.17;;;;;;;14.53;47.89;100615.19;10543927;28;20040;-82
2023/04/30 11:22:04;;;;;;;5.00;2.33;;;;;;;15.91;46.42;100617.44;10557675;28;20086;-82
2023/04/30 11:27:05;;;;;;;4.65;2.00;;;;;;;15.02;45.96;100611.47;10545565;28;20101;-81
2023/04/30 11:32:08;;;;;;;3.95;1.90;;;;;;;14.66;46.50;100610.28;10526829;28;20040;-83
2023/04/30 11:37:14;;;;;;;3.30;2.25;;;;;;;15.50;47.89;100617.41;10545511;28;20181;-81
2023/04/30 11:42:20;;;;;;;;;;;;;;;14.96;45.82;100619.63;10527962;28;20044;-82
2023/04/30 11:47:21;;;;;;;4.13;1.75;;;;;;;14.42;48.23;100618.22;10526669;28;19924;-83
2023/04/30 11:52:24;;;;;;;6.00;1.95;;;;;;;14.60;48.26;100608.72;10526377;28;20040;-83
2023/04/30 11:57:34;;;;;;;4.10;1.90;;;;;;;14.34;48.10;100602.66;10545711;28;20066;-80
2023/04/30 12:02:35;;;;;;;3.47;1.50;;;;;;;14.37;49.94;100599.00;10529750;28;20116;-80
2023/04/30 12:07:38;;;;;;;4.93;2.08;;;;;;;15.42;44.83;100588.59;10554126;28;20044;-80
2023/04/30 12:12:42;;;;;;;3.42;1.60;;;;;;;14.98;46.64;100588.69;10565402;28;20090;-78
2023/04/30 12:17:45;;;;;;;3.05;1.50;;;;;;;15.24;44.63;100584.94;10535706;28;20523;-80
2023/04/30 12:22:47;;;;;;;3.13;1.40;;;;;;;15.40;42.72;100590.44;10551998;28;20460;-81
2023/04/30 12:27:51;;;;;;;3.85;2.08;;;;;;;15.80;45.73;100594.03;10535475;28;20044;-80
2023/04/30 12:32:58;;;;;;;3.35;1.63;;;;;;;15.64;41.07;100589.41;10534405;28;20046;-79
2023/04/30 12:38:04;;;;;;;2.92;1.40;;;;;;;15.77;41.67;100579.16;10560397;28;20063;-79
2023/04/30 12:43:07;;;;;;;3.20;1.55;;;;;;;16.07;40.19;100570.72;10539295;28;20048;-78
2023/04/30 12:48:10;;;;;;;3.45;1.27;;;;;;;15.91;37.31;100567.91;10552867;28;20044;-79
2023/04/30 12:53:12;;;;;;;3.38;1.23;;;;;;;15.41;37.70;100565.69;10559669;28;20043;-79
2023/04/30 12:58:15;;;;;;;3.20;1.40;;;;;;;15.82;40.32;100555.94;10550781;28;20066;-78
2023/04/30 13:03:19;;;;;;;2.85;1.10;;;;;;;16.53;38.36;100553.50;10544648;28;20072;-78
2023/04/30 13:08:22;;;;;;;3.33;1.20;;;;;;;16.56;37.97;100547.19;10577988;28;20107;-78
2023/04/30 13:13:24;;;;;;;2.83;1.17;;;;;;;16.42;36.41;100541.69;10579539;28;20100;-78
2023/04/30 13:18:26;;;;;;;2.22;0.90;;;;;;;16.59;35.52;100547.03;10568263;28;20048;-78
2023/04/30 13:23:28;;;;;;;3.30;1.20;;;;;;;15.96;37.59;100536.75;10557786;28;20100;-79
2023/04/30 13:28:34;;;;;;;3.33;1.13;;;;;;;16.07;37.92;100536.22;10512316;28;20369;-78
2023/04/30 13:33:35;;;;;;;2.55;1.15;;;;;;;15.87;36.87;100532.72;10548381;28;20044;-79
2023/04/30 13:38:38;;;;;;;3.47;1.45;;;;;;;15.70;38.78;100523.81;10527139;28;20408;-78
2023/04/30 13:43:41;;;;;;;3.58;1.60;;;;;;;15.64;39.14;100515.22;10527947;28;20101;-78
2023/04/30 13:48:46;;;;;;;3.50;1.45;;;;;;;15.56;38.79;100508.50;10545211;28;20040;-78
2023/04/30 13:53:48;;;;;;;3.08;1.30;;;;;;;15.28;39.97;100511.53;10526413;28;20044;-80
2023/04/30 13:58:50;;;;;;;3.83;1.20;;;;;;;14.99;39.26;100505.69;10525982;28;20055;-79
2023/04/30 14:03:51;;;;;;;1.60;1.20;;;;;;;14.76;40.45;100508.44;10523604;28;20044;-78
2023/04/30 14:08:53;;;;;;;2.72;1.40;;;;;;;14.73;38.47;100504.13;10525164;28;20117;-77
2023/04/30 14:13:55;;;;;;;2.40;1.30;;;;;;;14.64;40.73;100489.47;10543876;28;20043;-79
2023/04/30 14:18:56;;;;;;;3.80;1.15;;;;;;;14.70;38.38;100491.03;10543983;28;20063;-80
2023/04/30 14:23:58;;;;;;;5.00;1.52;;;;;;;14.52;37.97;100483.81;10522065;28;20143;-80
2023/04/30 14:29:00;;;;;;;1.83;1.23;;;;;;;14.42;37.39;100488.59;10536807;28;20113;-79
2023/04/30 14:34:02;;;;;;;3.22;1.20;;;;;;;14.53;37.34;100485.56;10542641;28;20058;-77
2023/04/30 14:39:03;;;;;;;2.90;1.20;;;;;;;14.46;38.26;100476.13;10524249;28;20375;-79
2023/04/30 14:44:05;;;;;;;3.80;1.30;;;;;;;14.74;37.86;100476.75;10524098;28;20466;-78
2023/04/30 14:49:07;;;;;;;3.35;1.05;;;;;;;14.67;38.71;100471.78;10526661;28;20428;-79
2023/04/30 14:54:08;;;;;;;3.67;1.20;;;;;;;14.23;37.37;100469.13;10509619;28;20036;-81
2023/04/30 14:59:14;;;;;;;2.58;1.17;;;;;;;14.43;37.13;100468.31;10548196;28;20149;-80
2023/04/30 15:04:47;;;;;;;2.28;1.10;;;;;;;14.38;36.99;100468.50;10534841;28;20112;-79
2023/04/30 15:09:49;;;;;;;3.10;0.93;;;;;;;14.44;35.21;100468.25;10566727;28;20094;-79
2023/04/30 15:15:03;;;;;;;4.45;2.10;;;;;;;14.26;35.49;100469.88;10543157;28;20115;-80
2023/04/30 15:20:09;;;;;;;3.20;1.17;;;;;;;14.53;35.86;100456.47;10548662;28;20068;-78
2023/04/30 15:25:14;;;;;;;2.63;1.40;;;;;;;14.38;36.76;100457.91;10528282;28;20141;-79
2023/04/30 15:30:16;;;;;;;1.42;1.20;;;;;;;14.37;35.08;100458.84;10528687;28;20048;-80
2023/04/30 15:35:21;;;;;;;3.70;0.90;;;;;;;14.24;34.02;100454.97;10526681;28;20536;-79
2023/04/30 15:40:24;;;;;;;4.15;1.33;;;;;;;14.18;33.20;100457.88;10528000;28;20196;-80
2023/04/30 15:45:28;;;;;;;1.85;0.80;;;;;;;14.03;32.96;100454.91;10547513;28;20109;-79
2023/04/30 15:50:33;;;;;;;3.17;1.13;;;;;;;14.93;33.78;100458.31;10547218;28;20116;-80
2023/04/30 15:55:36;;;;;;;5.15;1.33;;;;;;;15.72;34.17;100448.63;10552216;28;20128;-78
2023/04/30 16:00:38;;;;;;;3.78;1.67;;;;;;;14.99;35.22;100454.53;10553932;28;20071;-79
2023/04/30 16:05:40;;;;;;;3.33;1.45;;;;;;;14.29;36.02;100439.78;10553012;28;20040;-78
2023/04/30 16:10:42;;;;;;;5.18;1.10;;;;;;;14.19;35.27;100443.72;10539280;28;20071;-78
2023/04/30 16:15:44;;;;;;;2.70;1.23;;;;;;;14.25;37.05;100436.38;10564934;28;20105;-79
2023/04/30 16:20:48;;;;;;;2.38;1.48;;;;;;;14.12;36.66;100433.41;10533582;28;20044;-80
2023/04/30 16:25:49;;;;;;;3.75;1.10;;;;;;;14.32;34.77;100435.22;10531941;28;20098;-80
2023/04/30 16:30:51;;;;;;;1.58;0.98;;;;;;;14.26;36.59;100432.00;10549925;28;20114;-80
2023/04/30 16:35:54;;;;;;;2.97;1.52;;;;;;;13.73;37.26;100429.69;10548245;28;20088;-78
2023/04/30 16:40:55;;;;;;;2.78;1.52;;;;;;;13.69;39.34;100420.16;10528894;28;20060;-78
2023/04/30 16:45:57;;;;;;;4.43;2.35;;;;;;;13.76;38.96;100430.41;10512949;28;20052;-80
2023/04/30 16:50:59;;;;;;;3.88;2.17;;;;;;;13.60;40.24;100422.22;10548879;28;20044;-80
2023/04/30 16:56:00;;;;;;;5.20;1.67;;;;;;;13.63;39.57;100419.47;10548240;28;20123;-78
2023/04/30 17:01:02;;;;;;;5.18;2.55;;;;;;;13.46;40.16;100423.63;10547829;28;20040;-80
2023/04/30 17:06:05;;;;;;;3.22;2.20;;;;;;;13.34;41.04;100414.41;10529481;28;20040;-78
2023/04/30 17:11:07;;;;;;;4.18;2.80;;;;;;;13.40;40.61;100416.81;10548146;28;20410;-79
2023/04/30 17:16:08;;;;;;;3.35;1.80;;;;;;;13.25;40.64;100420.91;10559191;28;20051;-78
2023/04/30 17:21:10;;;;;;;4.90;1.75;;;;;;;13.07;41.66;100425.03;10570217;28;20048;-80
2023/04/30 17:26:12;;;;;;;6.28;3.35;;;;;;;13.05;41.77;100426.84;10548294;28;20091;-80
2023/04/30 17:31:13;;;;;;;5.20;2.90;;;;;;;12.90;42.55;100418.63;10550275;28;20468;-79
2023/04/30 17:36:16;;;;;;;4.82;2.40;;;;;;;12.84;42.86;100430.25;10551846;28;20101;-79
2023/04/30 17:41:18;;;;;;;3.10;2.08;;;;;;;12.72;43.67;100428.91;10538161;28;20088;-79
2023/04/30 17:46:21;;;;;;;4.88;3.10;;;;;;;12.75;43.38;100425.28;10552292;28;20139;-80
2023/04/30 17:51:23;;;;;;;6.05;3.70;;;;;;;12.65;43.89;100429.16;10579354;28;20047;-79
2023/04/30 17:56:27;;;;;;;8.63;6.65;;;;;;;12.59;44.07;100432.88;10534901;22;20444;-82
2023/04/30 18:01:29;;;;;;;10.77;9.68;;;;;;;12.50;44.61;100430.53;10462466;28;20044;-80
2023/04/30 18:06:31;;;;;;;10.98;9.98;;;;;;;12.65;46.15;100431.78;10461235;28;20049;-82
2023/04/30 18:11:32;;;;;;;6.82;6.07;;;;;;;12.41;46.39;100434.34;10444411;28;20262;-82
2023/04/30 18:16:34;;;;;;;6.72;5.38;;;;;;;12.25;48.14;100427.84;10441364;28;20055;-81
2023/04/30 18:21:36;;;;;;;5.90;4.97;;;;;;;12.05;48.00;100442.53;10459271;28;20062;-82
2023/04/30 18:26:38;;;;;;;4.40;3.67;;;;;;;11.70;49.19;100434.81;10442496;28;20040;-81
2023/04/30 18:31:40;;;;;;;6.57;5.70;;;;;;;11.47;50.19;100438.97;10460111;28;20057;-82
2023/04/30 18:36:42;;;;;;;7.93;6.28;;;;;;;11.26;51.41;100440.44;10441310;28;20116;-82
2023/04/30 18:41:43;;;;;;;8.10;6.80;;;;;;;11.17;51.64;100432.81;10442105;28;20053;-83
2023/04/30 18:46:45;;;;;;;9.60;8.65;;;;;;;11.06;52.91;100443.59;10448721;28;20052;-82
2023/04/30 18:51:47;;;;;;;10.35;9.35;;;;;;;10.89;53.46;100445.84;10463651;28;20072;-81
2023/04/30 18:56:48;;;;;;;13.73;12.43;;;;;;;10.92;53.08;100453.66;10446582;28;20045;-80
2023/04/30 19:01:50;;;;;;;16.58;14.88;;;;;;;10.90;53.71;100452.84;10441925;28;20114;-82
2023/04/30 19:06:54;;;;;;;14.27;13.00;;;;;;;11.05;52.79;100452.41;10439522;28;20072;-82
2023/04/30 19:11:56;;;;;;;12.57;11.15;;;;;;;10.84;54.12;100455.59;10438438;28;20067;-82
2023/04/30 19:16:59;;;;;;;12.75;10.43;;;;;;;10.47;56.39;100446.03;10439876;28;20062;-83
2023/04/30 19:22:01;;;;;;;10.30;9.05;;;;;;;10.27;57.21;100454.41;10441326;28;20469;-83
2023/04/30 19:27:03;;;;;;;10.95;8.93;;;;;;;10.43;56.00;100454.03;10440521;28;20040;-83
2023/04/30 19:32:05;;;;;;;8.63;7.72;;;;;;;10.38;56.43;100454.16;10463088;28;20059;-83
2023/04/30 19:37:07;;;;;;;9.10;7.32;;;;;;;10.22;58.32;100452.75;10464058;28;20045;-83
2023/04/30 19:42:09;;;;;;;7.63;6.93;;;;;;;9.93;60.30;100454.28;10451690;28;20471;-83
2023/04/30 19:47:10;;;;;;;6.93;6.32;;;;;;;9.58;61.91;100455.06;10459219;28;20162;-83
2023/04/30 19:52:13;;;;;;;7.80;7.00;;;;;;;9.30;63.98;100453.00;10471804;28;20405;-82
2023/04/30 19:57:16;;;;;;;9.85;8.85;;;;;;;9.30;64.88;100467.88;10468158;28;20045;-83
2023/04/30 20:02:18;;;;;;;8.48;7.65;;;;;;;9.20;65.65;100475.03;10470328;28;20051;-83
2023/04/30 20:07:19;;;;;;;11.55;10.45;;;;;;;8.89;67.17;100473.88;10450821;28;20102;-83
2023/04/30 20:12:21;;;;;;;11.60;10.57;;;;;;;8.58;68.39;100467.41;10471681;28;20052;-83
2023/04/30 20:17:23;;;;;;;12.93;11.73;;;;;;;8.54;69.35;100468.38;10452244;28;20045;-82
2023/04/30 20:22:26;;;;;;;13.77;12.38;;;;;;;8.78;67.63;100463.59;10480782;28;20045;-82
2023/04/30 20:27:28;;;;;;;11.45;9.88;;;;;;;8.58;67.34;100464.78;10449922;28;20187;-82
2023/04/30 20:32:30;;;;;;;13.30;9.27;;;;;;;8.32;68.49;100464.31;10465634;28;20045;-82
2023/04/30 20:37:33;;;;;;;11.32;10.20;;;;;;;8.27;69.62;100453.91;10464751;28;20070;-82
2023/04/30 20:42:34;;;;;;;16.50;15.00;;;;;;;8.20;69.99;100452.28;10463291;28;20045;-83
2023/04/30 20:47:38;;;;;;;21.73;16.15;;;;;;;8.05;70.45;100449.88;10445559;28;20044;-83
2023/04/30 20:52:40;;;;;;;20.17;18.10;;;;;;;7.84;71.12;100457.19;10464972;28;20417;-83
2023/04/30 20:57:42;;;;;;;22.52;19.95;;;;;;;7.80;71.46;100444.16;10446510;28;20446;-82
2023/04/30 21:02:44;;;;;;;24.92;20.73;;;;;;;7.86;70.99;100444.06;10445285;28;20115;-82
2023/04/30 21:07:46;;;;;;;26.58;19.23;;;;;;;7.75;70.74;100444.22;10464495;28;20114;-82
2023/04/30 21:12:47;;;;;;;21.20;19.10;;;;;;;7.56;71.88;100450.56;10463737;28;20140;-82
2023/04/30 21:17:49;;;;;;;28.60;18.25;;;;;;;7.45;71.93;100447.22;10463043;28;20041;-82
2023/04/30 21:22:53;;;;;;;20.67;18.55;;;;;;;7.31;72.95;100453.50;10445585;28;20144;-83
2023/04/30 21:27:55;;;;;;;20.17;18.20;;;;;;;7.08;75.64;100453.75;10451323;28;20056;-83
2023/04/30 21:32:57;;;;;;;28.15;23.65;;;;;;;7.12;76.01;100458.94;10446160;28;20045;-82
2023/04/30 21:38:00;;;;;;;34.35;27.85;;;;;;;6.99;77.77;100464.28;10429060;28;20397;-82
2023/04/30 21:43:02;;;;;;;31.48;23.73;;;;;;;7.53;76.68;100454.09;10431528;28;20120;-82
2023/04/30 21:48:04;;;;;;;41.90;26.00;;;;;;;7.35;74.50;100454.34;10426587;28;20087;-83
2023/04/30 21:53:06;;;;;;;22.85;20.23;;;;;;;7.19;73.46;100445.78;10459488;28;20082;-82
2023/04/30 21:58:08;;;;;;;25.58;19.92;;;;;;;6.66;76.72;100436.75;10441441;28;20068;-82
2023/04/30 22:03:10;;;;;;;26.45;20.02;;;;;;;6.73;77.21;100442.78;10443941;28;20052;-82
2023/04/30 22:08:11;;;;;;;25.58;20.35;;;;;;;6.58;76.92;100441.19;10430000;28;20114;-82
2023/04/30 22:13:13;;;;;;;20.73;18.80;;;;;;;6.30;79.49;100444.03;10442258;28;20041;-82
2023/04/30 22:18:16;;;;;;;21.35;19.08;;;;;;;6.33;79.54;100435.31;10462097;28;20045;-83
2023/04/30 22:23:20;;;;;;;20.67;18.45;;;;;;;6.25;80.22;100431.91;10439132;28;20037;-82
2023/04/30 22:28:22;;;;;;;19.00;17.20;;;;;;;6.03;81.92;100426.84;10467379;28;20469;-82
2023/04/30 22:33:24;;;;;;;18.50;16.75;;;;;;;6.12;81.39;100422.44;10459456;28;20047;-83
2023/04/30 22:38:25;;;;;;;18.20;15.57;;;;;;;5.95;82.15;100414.72;10444459;28;20051;-83
2023/04/30 22:43:29;;;;;;;21.75;16.23;;;;;;;5.85;82.98;100407.78;10442975;28;20041;-83
2023/04/30 22:48:31;;;;;;;16.48;14.70;;;;;;;5.85;83.05;100406.06;10448337;28;20072;-82
2023/04/30 22:53:33;;;;;;;17.73;15.93;;;;;;;5.56;85.24;100422.72;10427483;28;20049;-82
2023/04/30 22:58:35;;;;;;;22.42;17.50;;;;;;;5.88;83.03;100408.63;10423885;28;20135;-82
2023/04/30 23:03:37;;;;;;;25.30;19.98;;;;;;;6.10;82.49;100406.75;10440836;28;20071;-81
2023/04/30 23:08:39;;;;;;;28.42;21.40;;;;;;;5.69;84.21;100404.41;10443179;28;20068;-82
2023/04/30 23:13:41;;;;;;;43.28;27.13;;;;;;;5.38;85.90;100399.34;10426892;28;20055;-83